sensor_id;sensor_type;location;lat;lon;timestamp;P1;durP1;ratioP1;P2;durP2;ratioP2
35245;SDS011;21379;50.962;6.960;2023-08-21T00:00:56;9.45;;;7.65;;
35245;SDS011;21379;50.962;6.960;2023-08-21T00:03:23;9.85;;;7.78;;
35245;SDS011;21379;50.962;6.960;2023-08-21T00:05:50;12.57;;;8.02;;
35245;SDS011;21379;50.962;6.960;2023-08-21T00:08:16;11.30;;;7.90;;
35245;SDS011;21379;50.962;6.960;2023-08-21T00:10:43;10.30;;;7.60;;
35245;SDS011;21379;50.962;6.960;2023-08-21T00:13:11;14.95;;;8.65;;
35245;SDS011;21379;50.962;6.960;2023-08-21T00:15:38;11.00;;;7.72;;
35245;SDS011;21379;50.962;6.960;2023-08-21T00:18:05;13.32;;;8.60;;
35245;SDS011;21379;50.962;6.960;2023-08-21T00:20:31;9.40;;;7.93;;
35245;SDS011;21379;50.962;6.960;2023-08-21T00:22:58;10.73;;;8.98;;
35245;SDS011;21379;50.962;6.960;2023-08-21T00:25:25;10.40;;;8.18;;
35245;SDS011;21379;50.962;6.960;2023-08-21T00:27:51;11.30;;;8.57;;
35245;SDS011;21379;50.962;6.960;2023-08-21T00:30:20;9.75;;;7.93;;
35245;SDS011;21379;50.962;6.960;2023-08-21T00:32:46;11.70;;;7.95;;
35245;SDS011;21379;50.962;6.960;2023-08-21T00:35:13;12.60;;;8.13;;
35245;SDS011;21379;50.962;6.960;2023-08-21T00:37:40;12.20;;;8.73;;
35245;SDS011;21379;50.962;6.960;2023-08-21T00:40:07;12.57;;;8.25;;
35245;SDS011;21379;50.962;6.960;2023-08-21T00:42:34;11.55;;;8.82;;
35245;SDS011;21379;50.962;6.960;2023-08-21T00:45:01;13.27;;;8.07;;
35245;SDS011;21379;50.962;6.960;2023-08-21T00:49:56;11.27;;;7.45;;
35245;SDS011;21379;50.962;6.960;2023-08-21T00:52:30;10.43;;;8.27;;
35245;SDS011;21379;50.962;6.960;2023-08-21T00:54:57;13.07;;;9.35;;
35245;SDS011;21379;50.962;6.960;2023-08-21T00:57:24;12.10;;;9.05;;
35245;SDS011;21379;50.962;6.960;2023-08-21T00:59:51;10.57;;;8.50;;
35245;SDS011;21379;50.962;6.960;2023-08-21T01:02:18;12.00;;;8.30;;
35245;SDS011;21379;50.962;6.960;2023-08-21T01:04:46;12.13;;;8.70;;
35245;SDS011;21379;50.962;6.960;2023-08-21T01:07:13;12.85;;;8.65;;
35245;SDS011;21379;50.962;6.960;2023-08-21T01:09:42;12.00;;;8.05;;
35245;SDS011;21379;50.962;6.960;2023-08-21T01:12:14;11.40;;;8.45;;
35245;SDS011;21379;50.962;6.960;2023-08-21T01:14:47;12.57;;;8.95;;
35245;SDS011;21379;50.962;6.960;2023-08-21T01:17:17;12.35;;;8.57;;
35245;SDS011;21379;50.962;6.960;2023-08-21T01:19:48;11.82;;;7.97;;
35245;SDS011;21379;50.962;6.960;2023-08-21T01:22:16;10.85;;;8.27;;
35245;SDS011;21379;50.962;6.960;2023-08-21T01:24:44;12.73;;;8.10;;
35245;SDS011;21379;50.962;6.960;2023-08-21T01:27:10;13.60;;;8.48;;
35245;SDS011;21379;50.962;6.960;2023-08-21T01:29:38;12.57;;;8.07;;
35245;SDS011;21379;50.962;6.960;2023-08-21T01:32:06;10.15;;;8.10;;
35245;SDS011;21379;50.962;6.960;2023-08-21T01:34:36;12.00;;;8.25;;
35245;SDS011;21379;50.962;6.960;2023-08-21T01:39:30;11.63;;;8.13;;
35245;SDS011;21379;50.962;6.960;2023-08-21T01:41:58;11.25;;;8.27;;
35245;SDS011;21379;50.962;6.960;2023-08-21T01:44:25;11.15;;;7.85;;
35245;SDS011;21379;50.962;6.960;2023-08-21T01:46:52;12.48;;;8.82;;
35245;SDS011;21379;50.962;6.960;2023-08-21T01:49:19;11.68;;;8.15;;
35245;SDS011;21379;50.962;6.960;2023-08-21T01:51:46;11.38;;;8.38;;
35245;SDS011;21379;50.962;6.960;2023-08-21T01:54:12;12.27;;;7.68;;
35245;SDS011;21379;50.962;6.960;2023-08-21T01:56:39;13.07;;;9.18;;
35245;SDS011;21379;50.962;6.960;2023-08-21T01:59:07;12.88;;;8.48;;
35245;SDS011;21379;50.962;6.960;2023-08-21T02:01:34;12.30;;;9.05;;
35245;SDS011;21379;50.962;6.960;2023-08-21T02:06:28;11.07;;;8.48;;
35245;SDS011;21379;50.962;6.960;2023-08-21T02:08:55;12.82;;;8.48;;
35245;SDS011;21379;50.962;6.960;2023-08-21T02:11:21;14.00;;;8.80;;
35245;SDS011;21379;50.962;6.960;2023-08-21T02:13:50;10.38;;;8.43;;
35245;SDS011;21379;50.962;6.960;2023-08-21T02:16:19;13.50;;;8.68;;
35245;SDS011;21379;50.962;6.960;2023-08-21T02:18:47;10.57;;;8.02;;
35245;SDS011;21379;50.962;6.960;2023-08-21T02:21:13;12.93;;;8.30;;
35245;SDS011;21379;50.962;6.960;2023-08-21T02:23:40;11.55;;;9.02;;
35245;SDS011;21379;50.962;6.960;2023-08-21T02:26:07;12.30;;;8.95;;
35245;SDS011;21379;50.962;6.960;2023-08-21T02:28:33;12.48;;;8.52;;
35245;SDS011;21379;50.962;6.960;2023-08-21T02:31:00;12.48;;;8.63;;
35245;SDS011;21379;50.962;6.960;2023-08-21T02:33:28;14.52;;;8.10;;
35245;SDS011;21379;50.962;6.960;2023-08-21T02:35:55;12.80;;;8.02;;
35245;SDS011;21379;50.962;6.960;2023-08-21T02:38:22;11.55;;;8.00;;
35245;SDS011;21379;50.962;6.960;2023-08-21T02:40:49;12.20;;;8.65;;
35245;SDS011;21379;50.962;6.960;2023-08-21T02:43:15;10.18;;;8.77;;
35245;SDS011;21379;50.962;6.960;2023-08-21T02:45:42;12.18;;;8.02;;
35245;SDS011;21379;50.962;6.960;2023-08-21T02:48:09;11.65;;;8.23;;
35245;SDS011;21379;50.962;6.960;2023-08-21T02:50:37;11.43;;;8.45;;
35245;SDS011;21379;50.962;6.960;2023-08-21T02:53:04;13.90;;;8.07;;
35245;SDS011;21379;50.962;6.960;2023-08-21T02:55:30;10.68;;;8.18;;
35245;SDS011;21379;50.962;6.960;2023-08-21T02:57:57;9.68;;;7.32;;
35245;SDS011;21379;50.962;6.960;2023-08-21T03:00:24;12.02;;;7.72;;
35245;SDS011;21379;50.962;6.960;2023-08-21T03:02:50;8.82;;;7.20;;
35245;SDS011;21379;50.962;6.960;2023-08-21T03:05:17;10.45;;;7.95;;
35245;SDS011;21379;50.962;6.960;2023-08-21T03:07:45;9.88;;;6.88;;
35245;SDS011;21379;50.962;6.960;2023-08-21T03:10:13;9.43;;;7.25;;
35245;SDS011;21379;50.962;6.960;2023-08-21T03:12:40;8.90;;;8.00;;
35245;SDS011;21379;50.962;6.960;2023-08-21T03:15:07;9.68;;;7.05;;
35245;SDS011;21379;50.962;6.960;2023-08-21T03:17:34;11.30;;;7.40;;
35245;SDS011;21379;50.962;6.960;2023-08-21T03:20:01;9.77;;;7.25;;
35245;SDS011;21379;50.962;6.960;2023-08-21T03:22:29;11.38;;;7.28;;
35245;SDS011;21379;50.962;6.960;2023-08-21T03:24:58;14.95;;;7.40;;
35245;SDS011;21379;50.962;6.960;2023-08-21T03:27:25;9.93;;;8.15;;
35245;SDS011;21379;50.962;6.960;2023-08-21T03:29:52;13.95;;;7.97;;
35245;SDS011;21379;50.962;6.960;2023-08-21T03:32:19;15.52;;;7.57;;
35245;SDS011;21379;50.962;6.960;2023-08-21T03:34:46;12.23;;;7.45;;
35245;SDS011;21379;50.962;6.960;2023-08-21T03:37:12;12.48;;;7.35;;
35245;SDS011;21379;50.962;6.960;2023-08-21T03:39:39;9.48;;;7.97;;
35245;SDS011;21379;50.962;6.960;2023-08-21T03:42:10;12.18;;;8.13;;
35245;SDS011;21379;50.962;6.960;2023-08-21T03:44:38;10.75;;;7.32;;
35245;SDS011;21379;50.962;6.960;2023-08-21T03:47:05;10.27;;;7.97;;
35245;SDS011;21379;50.962;6.960;2023-08-21T03:49:37;8.50;;;6.22;;
35245;SDS011;21379;50.962;6.960;2023-08-21T03:52:04;11.93;;;8.00;;
35245;SDS011;21379;50.962;6.960;2023-08-21T03:54:31;12.38;;;7.65;;
35245;SDS011;21379;50.962;6.960;2023-08-21T03:56:58;9.50;;;6.93;;
35245;SDS011;21379;50.962;6.960;2023-08-21T03:59:26;12.23;;;7.95;;
35245;SDS011;21379;50.962;6.960;2023-08-21T04:01:53;13.10;;;8.10;;
35245;SDS011;21379;50.962;6.960;2023-08-21T04:04:20;9.95;;;7.43;;
35245;SDS011;21379;50.962;6.960;2023-08-21T04:06:47;8.93;;;7.57;;
35245;SDS011;21379;50.962;6.960;2023-08-21T04:09:14;9.60;;;8.00;;
35245;SDS011;21379;50.962;6.960;2023-08-21T04:11:40;10.07;;;7.93;;
35245;SDS011;21379;50.962;6.960;2023-08-21T04:14:07;13.05;;;7.20;;
35245;SDS011;21379;50.962;6.960;2023-08-21T04:16:35;8.93;;;6.70;;
35245;SDS011;21379;50.962;6.960;2023-08-21T04:19:02;13.80;;;7.78;;
35245;SDS011;21379;50.962;6.960;2023-08-21T04:21:29;13.75;;;8.32;;
35245;SDS011;21379;50.962;6.960;2023-08-21T04:23:56;10.80;;;7.65;;
35245;SDS011;21379;50.962;6.960;2023-08-21T04:26:22;10.10;;;7.18;;
35245;SDS011;21379;50.962;6.960;2023-08-21T04:28:49;9.55;;;7.47;;
35245;SDS011;21379;50.962;6.960;2023-08-21T04:31:16;14.05;;;7.85;;
35245;SDS011;21379;50.962;6.960;2023-08-21T04:33:44;13.07;;;7.80;;
35245;SDS011;21379;50.962;6.960;2023-08-21T04:36:14;10.15;;;7.97;;
35245;SDS011;21379;50.962;6.960;2023-08-21T04:38:41;13.00;;;8.00;;
35245;SDS011;21379;50.962;6.960;2023-08-21T04:41:08;11.30;;;8.23;;
35245;SDS011;21379;50.962;6.960;2023-08-21T04:43:37;12.70;;;8.52;;
35245;SDS011;21379;50.962;6.960;2023-08-21T04:46:06;13.43;;;8.05;;
35245;SDS011;21379;50.962;6.960;2023-08-21T04:48:35;10.95;;;7.55;;
35245;SDS011;21379;50.962;6.960;2023-08-21T04:51:03;10.65;;;7.60;;
35245;SDS011;21379;50.962;6.960;2023-08-21T04:53:29;9.93;;;7.53;;
35245;SDS011;21379;50.962;6.960;2023-08-21T04:55:58;11.98;;;8.45;;
35245;SDS011;21379;50.962;6.960;2023-08-21T04:58:25;10.93;;;8.35;;
35245;SDS011;21379;50.962;6.960;2023-08-21T05:00:52;13.70;;;8.73;;
35245;SDS011;21379;50.962;6.960;2023-08-21T05:03:18;11.02;;;8.32;;
35245;SDS011;21379;50.962;6.960;2023-08-21T05:05:51;13.23;;;8.50;;
35245;SDS011;21379;50.962;6.960;2023-08-21T05:08:20;10.82;;;8.38;;
35245;SDS011;21379;50.962;6.960;2023-08-21T05:10:47;10.93;;;8.38;;
35245;SDS011;21379;50.962;6.960;2023-08-21T05:13:13;14.38;;;8.70;;
35245;SDS011;21379;50.962;6.960;2023-08-21T05:15:43;13.65;;;8.95;;
35245;SDS011;21379;50.962;6.960;2023-08-21T05:18:09;14.20;;;9.02;;
35245;SDS011;21379;50.962;6.960;2023-08-21T05:20:36;12.98;;;8.15;;
35245;SDS011;21379;50.962;6.960;2023-08-21T05:23:03;14.73;;;9.50;;
35245;SDS011;21379;50.962;6.960;2023-08-21T05:25:32;15.27;;;9.60;;
35245;SDS011;21379;50.962;6.960;2023-08-21T05:27:59;12.23;;;8.15;;
35245;SDS011;21379;50.962;6.960;2023-08-21T05:30:26;11.68;;;8.80;;
35245;SDS011;21379;50.962;6.960;2023-08-21T05:32:53;16.13;;;9.07;;
35245;SDS011;21379;50.962;6.960;2023-08-21T05:35:19;12.52;;;8.35;;
35245;SDS011;21379;50.962;6.960;2023-08-21T05:37:46;12.90;;;8.43;;
35245;SDS011;21379;50.962;6.960;2023-08-21T05:40:13;11.65;;;8.27;;
35245;SDS011;21379;50.962;6.960;2023-08-21T05:42:41;11.07;;;8.35;;
35245;SDS011;21379;50.962;6.960;2023-08-21T05:45:08;13.88;;;8.75;;
35245;SDS011;21379;50.962;6.960;2023-08-21T05:47:35;11.73;;;8.70;;
35245;SDS011;21379;50.962;6.960;2023-08-21T05:50:01;14.05;;;8.70;;
35245;SDS011;21379;50.962;6.960;2023-08-21T05:52:29;11.05;;;7.88;;
35245;SDS011;21379;50.962;6.960;2023-08-21T05:54:56;10.70;;;7.90;;
35245;SDS011;21379;50.962;6.960;2023-08-21T05:57:24;13.75;;;9.07;;
35245;SDS011;21379;50.962;6.960;2023-08-21T05:59:52;13.80;;;8.43;;
35245;SDS011;21379;50.962;6.960;2023-08-21T06:02:19;10.80;;;8.13;;
35245;SDS011;21379;50.962;6.960;2023-08-21T06:04:45;11.32;;;8.00;;
35245;SDS011;21379;50.962;6.960;2023-08-21T06:07:12;13.02;;;8.98;;
35245;SDS011;21379;50.962;6.960;2023-08-21T06:09:39;12.15;;;8.57;;
35245;SDS011;21379;50.962;6.960;2023-08-21T06:12:06;14.52;;;9.13;;
35245;SDS011;21379;50.962;6.960;2023-08-21T06:14:35;11.30;;;8.23;;
35245;SDS011;21379;50.962;6.960;2023-08-21T06:17:03;12.57;;;9.07;;
35245;SDS011;21379;50.962;6.960;2023-08-21T06:19:31;10.85;;;8.95;;
35245;SDS011;21379;50.962;6.960;2023-08-21T06:21:58;11.40;;;8.32;;
35245;SDS011;21379;50.962;6.960;2023-08-21T06:24:25;15.98;;;8.75;;
35245;SDS011;21379;50.962;6.960;2023-08-21T06:26:56;11.35;;;9.38;;
35245;SDS011;21379;50.962;6.960;2023-08-21T06:29:23;13.85;;;9.05;;
35245;SDS011;21379;50.962;6.960;2023-08-21T06:31:50;13.65;;;9.30;;
35245;SDS011;21379;50.962;6.960;2023-08-21T06:34:18;12.43;;;9.00;;
35245;SDS011;21379;50.962;6.960;2023-08-21T06:36:45;11.77;;;9.32;;
35245;SDS011;21379;50.962;6.960;2023-08-21T06:39:15;18.95;;;10.32;;
35245;SDS011;21379;50.962;6.960;2023-08-21T06:41:42;16.23;;;9.00;;
35245;SDS011;21379;50.962;6.960;2023-08-21T06:44:17;11.18;;;9.38;;
35245;SDS011;21379;50.962;6.960;2023-08-21T06:46:43;13.70;;;8.43;;
35245;SDS011;21379;50.962;6.960;2023-08-21T06:49:10;10.85;;;8.02;;
35245;SDS011;21379;50.962;6.960;2023-08-21T06:51:38;12.75;;;8.52;;
35245;SDS011;21379;50.962;6.960;2023-08-21T06:54:05;10.63;;;8.32;;
35245;SDS011;21379;50.962;6.960;2023-08-21T06:56:32;14.60;;;8.45;;
35245;SDS011;21379;50.962;6.960;2023-08-21T06:58:58;10.75;;;8.52;;
35245;SDS011;21379;50.962;6.960;2023-08-21T07:01:25;11.65;;;8.77;;
35245;SDS011;21379;50.962;6.960;2023-08-21T07:03:52;11.85;;;8.82;;
35245;SDS011;21379;50.962;6.960;2023-08-21T07:06:18;11.35;;;7.90;;
35245;SDS011;21379;50.962;6.960;2023-08-21T07:08:46;13.43;;;7.90;;
35245;SDS011;21379;50.962;6.960;2023-08-21T07:11:13;12.32;;;7.88;;
35245;SDS011;21379;50.962;6.960;2023-08-21T07:13:42;10.63;;;8.10;;
35245;SDS011;21379;50.962;6.960;2023-08-21T07:16:09;12.32;;;8.85;;
35245;SDS011;21379;50.962;6.960;2023-08-21T07:18:35;10.63;;;8.80;;
35245;SDS011;21379;50.962;6.960;2023-08-21T07:21:02;12.85;;;9.60;;
35245;SDS011;21379;50.962;6.960;2023-08-21T07:25:57;15.05;;;9.93;;
35245;SDS011;21379;50.962;6.960;2023-08-21T07:28:24;13.55;;;9.27;;
35245;SDS011;21379;50.962;6.960;2023-08-21T07:30:54;16.85;;;9.02;;
35245;SDS011;21379;50.962;6.960;2023-08-21T07:33:21;10.35;;;7.93;;
35245;SDS011;21379;50.962;6.960;2023-08-21T07:35:47;13.68;;;9.23;;
35245;SDS011;21379;50.962;6.960;2023-08-21T07:38:23;13.45;;;8.38;;
35245;SDS011;21379;50.962;6.960;2023-08-21T07:40:49;13.07;;;9.32;;
35245;SDS011;21379;50.962;6.960;2023-08-21T07:43:17;12.18;;;8.30;;
35245;SDS011;21379;50.962;6.960;2023-08-21T07:45:44;13.70;;;9.18;;
35245;SDS011;21379;50.962;6.960;2023-08-21T07:48:11;15.52;;;9.50;;
35245;SDS011;21379;50.962;6.960;2023-08-21T07:50:37;13.70;;;9.40;;
35245;SDS011;21379;50.962;6.960;2023-08-21T07:53:04;13.52;;;8.85;;
35245;SDS011;21379;50.962;6.960;2023-08-21T07:55:31;13.48;;;8.90;;
35245;SDS011;21379;50.962;6.960;2023-08-21T07:57:58;14.77;;;8.95;;
35245;SDS011;21379;50.962;6.960;2023-08-21T08:00:26;12.75;;;7.50;;
35245;SDS011;21379;50.962;6.960;2023-08-21T08:02:53;14.23;;;7.70;;
35245;SDS011;21379;50.962;6.960;2023-08-21T08:05:19;12.18;;;8.13;;
35245;SDS011;21379;50.962;6.960;2023-08-21T08:07:46;13.30;;;8.65;;
35245;SDS011;21379;50.962;6.960;2023-08-21T08:10:13;11.98;;;8.27;;
35245;SDS011;21379;50.962;6.960;2023-08-21T08:12:41;11.23;;;7.95;;
35245;SDS011;21379;50.962;6.960;2023-08-21T08:15:08;13.15;;;8.10;;
35245;SDS011;21379;50.962;6.960;2023-08-21T08:17:36;14.65;;;7.55;;
35245;SDS011;21379;50.962;6.960;2023-08-21T08:20:03;8.88;;;7.13;;
35245;SDS011;21379;50.962;6.960;2023-08-21T08:22:31;13.18;;;8.15;;
35245;SDS011;21379;50.962;6.960;2023-08-21T08:24:58;9.85;;;6.78;;
35245;SDS011;21379;50.962;6.960;2023-08-21T08:27:24;10.93;;;6.80;;
35245;SDS011;21379;50.962;6.960;2023-08-21T08:29:51;9.50;;;7.10;;
35245;SDS011;21379;50.962;6.960;2023-08-21T08:32:18;8.93;;;6.88;;
35245;SDS011;21379;50.962;6.960;2023-08-21T08:34:46;11.25;;;7.00;;
35245;SDS011;21379;50.962;6.960;2023-08-21T08:37:13;10.23;;;6.43;;
35245;SDS011;21379;50.962;6.960;2023-08-21T08:39:39;9.00;;;6.60;;
35245;SDS011;21379;50.962;6.960;2023-08-21T08:42:06;9.70;;;5.95;;
35245;SDS011;21379;50.962;6.960;2023-08-21T08:44:34;8.43;;;6.47;;
35245;SDS011;21379;50.962;6.960;2023-08-21T08:47:02;9.98;;;5.78;;
35245;SDS011;21379;50.962;6.960;2023-08-21T08:49:29;7.82;;;6.28;;
35245;SDS011;21379;50.962;6.960;2023-08-21T08:51:58;10.45;;;7.43;;
35245;SDS011;21379;50.962;6.960;2023-08-21T08:54:26;15.68;;;7.70;;
35245;SDS011;21379;50.962;6.960;2023-08-21T08:56:53;10.45;;;6.75;;
35245;SDS011;21379;50.962;6.960;2023-08-21T08:59:20;10.40;;;7.32;;
35245;SDS011;21379;50.962;6.960;2023-08-21T09:01:46;11.38;;;8.65;;
35245;SDS011;21379;50.962;6.960;2023-08-21T09:04:13;13.68;;;8.45;;
35245;SDS011;21379;50.962;6.960;2023-08-21T09:06:40;9.80;;;6.65;;
35245;SDS011;21379;50.962;6.960;2023-08-21T09:09:08;12.57;;;7.35;;
35245;SDS011;21379;50.962;6.960;2023-08-21T09:11:41;10.48;;;7.32;;
35245;SDS011;21379;50.962;6.960;2023-08-21T09:14:08;10.75;;;7.15;;
35245;SDS011;21379;50.962;6.960;2023-08-21T09:16:36;13.27;;;8.00;;
35245;SDS011;21379;50.962;6.960;2023-08-21T09:19:03;12.00;;;7.05;;
35245;SDS011;21379;50.962;6.960;2023-08-21T09:21:30;13.13;;;7.65;;
35245;SDS011;21379;50.962;6.960;2023-08-21T09:23:57;16.40;;;9.27;;
35245;SDS011;21379;50.962;6.960;2023-08-21T09:26:26;15.55;;;10.45;;
35245;SDS011;21379;50.962;6.960;2023-08-21T09:28:53;18.17;;;10.15;;
35245;SDS011;21379;50.962;6.960;2023-08-21T09:31:23;18.35;;;10.95;;
35245;SDS011;21379;50.962;6.960;2023-08-21T09:33:56;16.63;;;9.07;;
35245;SDS011;21379;50.962;6.960;2023-08-21T09:38:50;15.57;;;7.60;;
35245;SDS011;21379;50.962;6.960;2023-08-21T09:41:18;14.45;;;8.07;;
35245;SDS011;21379;50.962;6.960;2023-08-21T09:43:47;16.90;;;8.75;;
35245;SDS011;21379;50.962;6.960;2023-08-21T09:46:14;14.45;;;9.25;;
35245;SDS011;21379;50.962;6.960;2023-08-21T09:48:41;15.27;;;9.02;;
35245;SDS011;21379;50.962;6.960;2023-08-21T09:51:10;15.95;;;8.30;;
35245;SDS011;21379;50.962;6.960;2023-08-21T09:53:37;15.85;;;8.70;;
35245;SDS011;21379;50.962;6.960;2023-08-21T09:56:06;16.42;;;8.20;;
35245;SDS011;21379;50.962;6.960;2023-08-21T09:58:34;21.33;;;11.25;;
35245;SDS011;21379;50.962;6.960;2023-08-21T10:01:04;15.43;;;10.40;;
35245;SDS011;21379;50.962;6.960;2023-08-21T10:03:36;16.40;;;11.65;;
35245;SDS011;21379;50.962;6.960;2023-08-21T10:06:04;14.02;;;9.88;;
35245;SDS011;21379;50.962;6.960;2023-08-21T10:08:32;15.48;;;11.00;;
35245;SDS011;21379;50.962;6.960;2023-08-21T10:11:04;16.23;;;10.27;;
35245;SDS011;21379;50.962;6.960;2023-08-21T10:13:31;15.23;;;10.52;;
35245;SDS011;21379;50.962;6.960;2023-08-21T10:15:58;16.17;;;10.70;;
35245;SDS011;21379;50.962;6.960;2023-08-21T10:18:30;17.40;;;12.05;;
35245;SDS011;21379;50.962;6.960;2023-08-21T10:21:10;20.27;;;12.82;;
35245;SDS011;21379;50.962;6.960;2023-08-21T10:23:37;15.68;;;12.73;;
35245;SDS011;21379;50.962;6.960;2023-08-21T10:26:05;16.15;;;12.60;;
35245;SDS011;21379;50.962;6.960;2023-08-21T10:28:43;19.85;;;14.60;;
35245;SDS011;21379;50.962;6.960;2023-08-21T10:31:25;23.30;;;14.52;;
35245;SDS011;21379;50.962;6.960;2023-08-21T10:33:53;20.25;;;14.38;;
35245;SDS011;21379;50.962;6.960;2023-08-21T10:39:12;18.52;;;14.35;;
35245;SDS011;21379;50.962;6.960;2023-08-21T10:41:39;18.15;;;15.48;;
35245;SDS011;21379;50.962;6.960;2023-08-21T10:44:06;15.77;;;11.50;;
35245;SDS011;21379;50.962;6.960;2023-08-21T10:49:20;20.02;;;12.13;;
35245;SDS011;21379;50.962;6.960;2023-08-21T10:51:47;19.48;;;12.18;;
35245;SDS011;21379;50.962;6.960;2023-08-21T10:54:16;18.55;;;14.25;;
35245;SDS011;21379;50.962;6.960;2023-08-21T10:56:42;16.08;;;12.82;;
35245;SDS011;21379;50.962;6.960;2023-08-21T10:59:09;13.80;;;12.00;;
35245;SDS011;21379;50.962;6.960;2023-08-21T11:01:42;21.70;;;13.88;;
35245;SDS011;21379;50.962;6.960;2023-08-21T11:04:10;17.95;;;14.35;;
35245;SDS011;21379;50.962;6.960;2023-08-21T11:09:05;17.08;;;12.35;;
35245;SDS011;21379;50.962;6.960;2023-08-21T11:11:34;16.45;;;11.88;;
35245;SDS011;21379;50.962;6.960;2023-08-21T11:14:02;15.43;;;12.05;;
35245;SDS011;21379;50.962;6.960;2023-08-21T11:16:29;18.83;;;12.30;;
35245;SDS011;21379;50.962;6.960;2023-08-21T11:18:55;15.73;;;12.77;;
35245;SDS011;21379;50.962;6.960;2023-08-21T11:21:22;13.80;;;11.30;;
35245;SDS011;21379;50.962;6.960;2023-08-21T11:23:51;16.90;;;11.10;;
35245;SDS011;21379;50.962;6.960;2023-08-21T11:26:18;15.15;;;10.80;;
35245;SDS011;21379;50.962;6.960;2023-08-21T11:28:47;13.95;;;9.63;;
35245;SDS011;21379;50.962;6.960;2023-08-21T11:31:14;10.70;;;9.55;;
35245;SDS011;21379;50.962;6.960;2023-08-21T11:33:41;13.27;;;9.23;;
35245;SDS011;21379;50.962;6.960;2023-08-21T11:36:15;15.27;;;10.55;;
35245;SDS011;21379;50.962;6.960;2023-08-21T11:38:42;19.90;;;10.30;;
35245;SDS011;21379;50.962;6.960;2023-08-21T11:41:10;13.07;;;9.77;;
35245;SDS011;21379;50.962;6.960;2023-08-21T11:43:37;11.77;;;8.88;;
35245;SDS011;21379;50.962;6.960;2023-08-21T11:46:05;17.45;;;10.32;;
35245;SDS011;21379;50.962;6.960;2023-08-21T11:48:32;14.35;;;9.48;;
35245;SDS011;21379;50.962;6.960;2023-08-21T11:51:00;12.40;;;8.27;;
35245;SDS011;21379;50.962;6.960;2023-08-21T11:53:34;12.32;;;8.20;;
35245;SDS011;21379;50.962;6.960;2023-08-21T11:56:01;10.77;;;7.22;;
35245;SDS011;21379;50.962;6.960;2023-08-21T11:58:30;10.07;;;8.07;;
35245;SDS011;21379;50.962;6.960;2023-08-21T12:01:01;13.57;;;10.35;;
35245;SDS011;21379;50.962;6.960;2023-08-21T12:05:56;14.35;;;5.93;;
35245;SDS011;21379;50.962;6.960;2023-08-21T12:08:23;11.63;;;6.47;;
35245;SDS011;21379;50.962;6.960;2023-08-21T12:10:49;9.85;;;6.32;;
35245;SDS011;21379;50.962;6.960;2023-08-21T12:13:17;9.65;;;5.25;;
35245;SDS011;21379;50.962;6.960;2023-08-21T12:15:45;11.25;;;6.40;;
35245;SDS011;21379;50.962;6.960;2023-08-21T12:18:12;10.05;;;5.63;;
35245;SDS011;21379;50.962;6.960;2023-08-21T12:20:38;12.02;;;5.80;;
35245;SDS011;21379;50.962;6.960;2023-08-21T12:23:05;10.55;;;5.38;;
35245;SDS011;21379;50.962;6.960;2023-08-21T12:25:32;7.45;;;5.05;;
35245;SDS011;21379;50.962;6.960;2023-08-21T12:27:58;10.32;;;5.50;;
35245;SDS011;21379;50.962;6.960;2023-08-21T12:30:25;6.95;;;5.20;;
35245;SDS011;21379;50.962;6.960;2023-08-21T12:32:53;8.43;;;4.60;;
35245;SDS011;21379;50.962;6.960;2023-08-21T12:35:20;10.80;;;4.85;;
35245;SDS011;21379;50.962;6.960;2023-08-21T12:37:47;8.18;;;4.53;;
35245;SDS011;21379;50.962;6.960;2023-08-21T12:40:13;10.30;;;4.40;;
35245;SDS011;21379;50.962;6.960;2023-08-21T12:42:40;9.93;;;5.10;;
35245;SDS011;21379;50.962;6.960;2023-08-21T12:45:07;12.63;;;4.95;;
35245;SDS011;21379;50.962;6.960;2023-08-21T12:47:34;10.15;;;5.07;;
35245;SDS011;21379;50.962;6.960;2023-08-21T12:50:02;7.60;;;4.50;;
35245;SDS011;21379;50.962;6.960;2023-08-21T12:52:29;8.77;;;4.38;;
35245;SDS011;21379;50.962;6.960;2023-08-21T12:54:56;8.95;;;4.25;;
35245;SDS011;21379;50.962;6.960;2023-08-21T12:57:24;8.88;;;4.50;;
35245;SDS011;21379;50.962;6.960;2023-08-21T12:59:51;7.18;;;4.70;;
35245;SDS011;21379;50.962;6.960;2023-08-21T13:02:18;9.68;;;4.88;;
35245;SDS011;21379;50.962;6.960;2023-08-21T13:04:44;6.75;;;4.10;;
35245;SDS011;21379;50.962;6.960;2023-08-21T13:07:12;12.25;;;4.72;;
35245;SDS011;21379;50.962;6.960;2023-08-21T13:09:39;13.27;;;4.30;;
35245;SDS011;21379;50.962;6.960;2023-08-21T13:12:06;11.38;;;4.70;;
35245;SDS011;21379;50.962;6.960;2023-08-21T13:14:33;8.45;;;4.18;;
35245;SDS011;21379;50.962;6.960;2023-08-21T13:17:00;8.85;;;4.10;;
35245;SDS011;21379;50.962;6.960;2023-08-21T13:19:27;11.80;;;3.65;;
35245;SDS011;21379;50.962;6.960;2023-08-21T13:21:53;6.63;;;3.55;;
35245;SDS011;21379;50.962;6.960;2023-08-21T13:24:21;7.82;;;3.85;;
35245;SDS011;21379;50.962;6.960;2023-08-21T13:26:48;7.90;;;3.58;;
35245;SDS011;21379;50.962;6.960;2023-08-21T13:29:15;7.43;;;3.53;;
35245;SDS011;21379;50.962;6.960;2023-08-21T13:31:41;7.53;;;3.80;;
35245;SDS011;21379;50.962;6.960;2023-08-21T13:34:08;6.68;;;3.72;;
35245;SDS011;21379;50.962;6.960;2023-08-21T13:36:35;9.93;;;3.90;;
35245;SDS011;21379;50.962;6.960;2023-08-21T13:39:02;5.32;;;3.38;;
35245;SDS011;21379;50.962;6.960;2023-08-21T13:41:32;6.53;;;3.65;;
35245;SDS011;21379;50.962;6.960;2023-08-21T13:43:59;7.78;;;3.22;;
35245;SDS011;21379;50.962;6.960;2023-08-21T13:46:25;7.88;;;3.80;;
35245;SDS011;21379;50.962;6.960;2023-08-21T13:51:19;6.55;;;3.67;;
35245;SDS011;21379;50.962;6.960;2023-08-21T13:53:46;5.35;;;3.30;;
35245;SDS011;21379;50.962;6.960;2023-08-21T13:56:12;5.68;;;3.20;;
35245;SDS011;21379;50.962;6.960;2023-08-21T13:58:41;10.75;;;4.20;;
35245;SDS011;21379;50.962;6.960;2023-08-21T14:01:07;4.57;;;3.72;;
35245;SDS011;21379;50.962;6.960;2023-08-21T14:03:34;8.75;;;4.18;;
35245;SDS011;21379;50.962;6.960;2023-08-21T14:06:01;7.50;;;3.35;;
35245;SDS011;21379;50.962;6.960;2023-08-21T14:08:28;7.93;;;3.78;;
35245;SDS011;21379;50.962;6.960;2023-08-21T14:10:54;6.35;;;3.45;;
35245;SDS011;21379;50.962;6.960;2023-08-21T14:13:21;4.97;;;3.40;;
35245;SDS011;21379;50.962;6.960;2023-08-21T14:15:49;7.80;;;3.92;;
35245;SDS011;21379;50.962;6.960;2023-08-21T14:18:16;8.02;;;3.70;;
35245;SDS011;21379;50.962;6.960;2023-08-21T14:20:42;5.32;;;2.83;;
35245;SDS011;21379;50.962;6.960;2023-08-21T14:23:09;10.00;;;3.75;;
35245;SDS011;21379;50.962;6.960;2023-08-21T14:25:36;5.07;;;3.08;;
35245;SDS011;21379;50.962;6.960;2023-08-21T14:30:30;9.18;;;3.40;;
35245;SDS011;21379;50.962;6.960;2023-08-21T14:32:58;6.28;;;3.17;;
35245;SDS011;21379;50.962;6.960;2023-08-21T14:35:25;4.38;;;3.13;;
35245;SDS011;21379;50.962;6.960;2023-08-21T14:37:51;8.55;;;3.50;;
35245;SDS011;21379;50.962;6.960;2023-08-21T14:40:18;4.70;;;3.30;;
35245;SDS011;21379;50.962;6.960;2023-08-21T14:42:45;9.38;;;3.10;;
35245;SDS011;21379;50.962;6.960;2023-08-21T14:45:11;5.97;;;3.30;;
35245;SDS011;21379;50.962;6.960;2023-08-21T14:47:38;6.85;;;3.35;;
35245;SDS011;21379;50.962;6.960;2023-08-21T14:50:07;10.35;;;3.42;;
35245;SDS011;21379;50.962;6.960;2023-08-21T14:52:34;4.53;;;2.97;;
35245;SDS011;21379;50.962;6.960;2023-08-21T14:55:01;8.55;;;3.30;;
35245;SDS011;21379;50.962;6.960;2023-08-21T14:57:27;7.43;;;3.47;;
35245;SDS011;21379;50.962;6.960;2023-08-21T14:59:54;5.88;;;3.25;;
35245;SDS011;21379;50.962;6.960;2023-08-21T15:02:21;7.45;;;3.50;;
35245;SDS011;21379;50.962;6.960;2023-08-21T15:04:48;6.10;;;3.42;;